Time;durP1;ratioP1;P1;durP2;ratioP2;P2;SDS_P1;SDS_P2;PMS_P1;PMS_P2;Temp;Humidity;BMP_temperature;BMP_pressure;BME280_temperature;BME280_humidity;BME280_pressure;Samples;Min_cycle;Max_cycle;Signal;HPM_P1;HPM_P2
2023/10/18 00:01:34;;;;;;;1.50;1.40;;;9.40;99.90;;;;;;7396120;19;20143;-72
2023/10/18 00:03:59;;;;;;;2.07;1.87;;;9.60;99.90;;;;;;7396126;19;20145;-73
2023/10/18 00:06:26;;;;;;;1.50;1.40;;;9.60;99.90;;;;;;7394196;19;20146;-72
2023/10/18 00:08:57;;;;;;;2.23;1.90;;;9.70;99.90;;;;;;7394172;19;20142;-73
2023/10/18 00:11:25;;;;;;;1.53;1.43;;;9.80;99.90;;;;;;7396313;19;20451;-71
2023/10/18 00:13:53;;;;;;;2.87;2.10;;;9.50;99.90;;;;;;7393747;19;20130;-71
2023/10/18 00:16:24;;;;;;;1.87;1.50;;;9.30;99.90;;;;;;7395110;19;20488;-72
2023/10/18 00:18:49;;;;;;;2.57;2.03;;;8.90;99.90;;;;;;7393475;19;20130;-71
2023/10/18 00:21:16;;;;;;;1.50;1.40;;;8.80;99.90;;;;;;7396736;19;20145;-73
2023/10/18 00:23:43;;;;;;;1.70;1.60;;;9.00;99.90;;;;;;7392525;19;20134;-72
2023/10/18 00:26:11;;;;;;;1.87;1.63;;;9.20;99.90;;;;;;7392438;19;20131;-73
2023/10/18 00:28:38;;;;;;;4.87;1.90;;;8.90;99.90;;;;;;7392225;19;20159;-74
2023/10/18 00:31:17;;;;;;;2.53;1.87;;;9.00;99.90;;;;;;7397640;19;20135;-73
2023/10/18 00:33:44;;;;;;;2.13;1.73;;;8.70;99.90;;;;;;7394888;19;20162;-71
2023/10/18 00:36:16;;;;;;;3.63;2.37;;;8.90;99.90;;;;;;7394166;19;20580;-71
2023/10/18 00:38:46;;;;;;;2.77;1.70;;;9.10;99.90;;;;;;7396144;19;20213;-71
2023/10/18 00:41:21;;;;;;;1.97;1.60;;;9.40;99.90;;;;;;7392962;19;20131;-73
2023/10/18 00:43:50;;;;;;;2.50;2.00;;;9.30;99.90;;;;;;7392823;19;20178;-72
2023/10/18 00:46:16;;;;;;;2.90;2.33;;;9.40;99.90;;;;;;7393010;19;20147;-72
2023/10/18 00:48:44;;;;;;;2.73;2.00;;;9.50;99.90;;;;;;7393153;19;20197;-74
2023/10/18 00:51:18;;;;;;;2.67;1.80;;;9.50;99.90;;;;;;7394316;19;20170;-72
2023/10/18 00:53:47;;;;;;;2.50;2.00;;;9.50;99.90;;;;;;7394429;19;20143;-72
2023/10/18 00:56:15;;;;;;;2.50;2.07;;;8.90;99.90;;;;;;7392873;19;20134;-73
2023/10/18 00:58:44;;;;;;;2.53;2.10;;;8.70;99.90;;;;;;7393411;19;20162;-73
2023/10/18 01:01:11;;;;;;;2.83;1.90;;;8.60;99.90;;;;;;7396582;19;20144;-72
2023/10/18 01:03:49;;;;;;;2.53;2.03;;;8.50;99.90;;;;;;7391974;19;20141;-72
2023/10/18 01:06:21;;;;;;;1.87;1.60;;;8.40;99.90;;;;;;7388414;19;20150;-72
2023/10/18 01:08:48;;;;;;;2.20;2.00;;;8.40;99.90;;;;;;7393850;19;20147;-72
2023/10/18 01:11:18;;;;;;;3.80;1.87;;;8.40;99.90;;;;;;7395413;19;20592;-72
2023/10/18 01:13:45;;;;;;;1.97;1.70;;;8.30;99.90;;;;;;7392392;19;20134;-72
2023/10/18 01:16:21;;;;;;;2.63;1.87;;;8.10;99.90;;;;;;7393425;19;20483;-72
2023/10/18 01:18:48;;;;;;;3.30;2.20;;;8.50;99.90;;;;;;7391794;19;20166;-71
2023/10/18 01:21:16;;;;;;;1.40;1.27;;;8.40;99.90;;;;;;7394223;19;20151;-72
2023/10/18 01:23:43;;;;;;;2.13;1.40;;;8.50;99.90;;;;;;7385685;19;20149;-72
2023/10/18 01:26:13;;;;;;;2.10;1.83;;;8.60;99.90;;;;;;7392245;19;20138;-72
2023/10/18 01:28:40;;;;;;;2.37;2.13;;;8.40;99.90;;;;;;7391404;19;20154;-72
2023/10/18 01:31:06;;;;;;;2.20;1.73;;;8.30;99.90;;;;;;7391781;19;20147;-72
2023/10/18 01:33:33;;;;;;;3.00;2.00;;;8.80;99.90;;;;;;7395052;19;20131;-72
2023/10/18 01:36:00;;;;;;;3.90;2.00;;;8.70;99.90;;;;;;7392639;19;20155;-71
2023/10/18 01:38:30;;;;;;;3.60;2.30;;;8.90;99.90;;;;;;7391495;19;20842;-72
2023/10/18 01:41:08;;;;;;;2.10;1.70;;;9.10;99.90;;;;;;7395085;19;20494;-72
2023/10/18 01:43:36;;;;;;;3.07;1.80;;;9.00;99.90;;;;;;7390338;19;20550;-73
2023/10/18 01:46:07;;;;;;;2.90;2.07;;;8.90;99.90;;;;;;7391674;19;20142;-72
2023/10/18 01:48:37;;;;;;;2.50;1.57;;;9.00;99.90;;;;;;7392610;19;20131;-72
2023/10/18 01:51:09;;;;;;;1.60;1.40;;;9.30;99.90;;;;;;7393051;19;20158;-72
2023/10/18 01:53:38;;;;;;;2.40;1.73;;;9.00;99.90;;;;;;7393017;19;20123;-73
2023/10/18 01:56:04;;;;;;;2.57;2.23;;;9.00;99.90;;;;;;7392181;19;20146;-73
2023/10/18 01:58:30;;;;;;;2.00;1.80;;;8.70;99.90;;;;;;7391531;19;20131;-73
2023/10/18 02:00:57;;;;;;;2.23;2.03;;;8.40;99.90;;;;;;7390734;19;20142;-72
2023/10/18 02:03:26;;;;;;;2.83;1.83;;;8.40;99.90;;;;;;7394372;19;20134;-73
2023/10/18 02:05:52;;;;;;;2.23;1.93;;;8.50;99.90;;;;;;7390926;19;20158;-73
2023/10/18 02:08:17;;;;;;;2.87;1.93;;;8.70;99.90;;;;;;7387034;19;20134;-72
2023/10/18 02:10:45;;;;;;;1.90;1.77;;;8.90;99.90;;;;;;7391977;19;20155;-72
2023/10/18 02:13:13;;;;;;;2.03;1.87;;;8.90;99.90;;;;;;7393004;19;20453;-72
2023/10/18 02:15:40;;;;;;;2.83;1.97;;;8.40;99.90;;;;;;7393037;19;20590;-72
2023/10/18 02:18:08;;;;;;;3.30;2.20;;;8.40;99.90;;;;;;7393047;19;20139;-72
2023/10/18 02:20:41;;;;;;;2.20;1.73;;;8.60;99.90;;;;;;7392161;19;20234;-72
2023/10/18 02:23:13;;;;;;;3.27;1.90;;;8.80;99.90;;;;;;7392765;19;20197;-72
2023/10/18 02:28:08;;;;;;;3.70;1.80;;;8.70;99.90;;;;;;7392229;19;20153;-72
2023/10/18 02:30:38;;;;;;;2.87;1.93;;;8.80;99.90;;;;;;7388318;19;20159;-72
2023/10/18 02:33:05;;;;;;;1.97;1.60;;;9.00;99.90;;;;;;7391760;19;20587;-73
2023/10/18 02:35:34;;;;;;;2.80;2.10;;;9.10;99.90;;;;;;7391688;19;20135;-72
2023/10/18 02:38:08;;;;;;;1.83;1.73;;;9.20;99.90;;;;;;7389722;19;20134;-73
2023/10/18 02:40:38;;;;;;;2.50;1.87;;;9.10;99.90;;;;;;7393245;19;20138;-73
2023/10/18 02:43:10;;;;;;;2.93;2.20;;;9.10;99.90;;;;;;7391882;19;20842;-71
2023/10/18 02:45:42;;;;;;;2.13;1.67;;;9.20;99.90;;;;;;7390394;19;20138;-72
2023/10/18 02:48:13;;;;;;;2.20;1.63;;;9.10;99.90;;;;;;7390326;19;20346;-72
2023/10/18 02:50:40;;;;;;;2.00;1.53;;;9.10;99.90;;;;;;7391405;19;20129;-72
2023/10/18 02:53:06;;;;;;;2.57;1.83;;;9.20;99.90;;;;;;7388825;19;20150;-72
2023/10/18 02:55:38;;;;;;;2.80;2.40;;;9.30;99.90;;;;;;7388791;19;20145;-73
2023/10/18 02:58:06;;;;;;;2.67;2.07;;;8.90;99.90;;;;;;7389922;19;20198;-72
2023/10/18 03:00:34;;;;;;;3.60;2.03;;;8.50;99.90;;;;;;7391484;19;20643;-72
2023/10/18 03:03:01;;;;;;;2.10;1.90;;;8.20;99.90;;;;;;7390732;19;20167;-73
2023/10/18 03:05:28;;;;;;;2.53;2.10;;;8.40;99.90;;;;;;7387151;19;20150;-72
2023/10/18 03:07:54;;;;;;;2.43;1.70;;;8.80;99.90;;;;;;7389666;19;20141;-73
2023/10/18 03:10:32;;;;;;;2.63;2.10;;;8.70;99.90;;;;;;7388751;19;20138;-72
2023/10/18 03:12:58;;;;;;;3.67;2.37;;;8.30;99.90;;;;;;7391777;19;20698;-73
2023/10/18 03:15:24;;;;;;;2.93;1.70;;;8.20;99.90;;;;;;7388826;19;20143;-71
2023/10/18 03:17:50;;;;;;;2.77;1.53;;;7.90;99.90;;;;;;7390671;19;20152;-73
2023/10/18 03:20:20;;;;;;;1.83;1.53;;;8.30;99.90;;;;;;7388602;19;20663;-72
2023/10/18 03:22:48;;;;;;;2.63;1.77;;;8.60;99.90;;;;;;7391609;19;20138;-73
2023/10/18 03:25:16;;;;;;;1.90;1.80;;;9.00;99.90;;;;;;7389026;19;20239;-72
2023/10/18 03:27:49;;;;;;;1.30;1.20;;;9.20;99.90;;;;;;7390433;19;20138;-73
2023/10/18 03:30:19;;;;;;;1.70;1.20;;;9.30;99.90;;;;;;7395912;19;20146;-71
2023/10/18 03:32:49;;;;;;;3.57;1.70;;;9.30;99.90;;;;;;7396448;19;20702;-72
2023/10/18 03:35:20;;;;;;;3.40;2.33;;;9.20;99.90;;;;;;7394084;19;20194;-72
2023/10/18 03:37:47;;;;;;;2.60;1.90;;;9.10;99.90;;;;;;7396976;19;20137;-72
2023/10/18 03:40:27;;;;;;;1.70;1.27;;;8.70;99.90;;;;;;7394988;19;20142;-72
2023/10/18 03:42:54;;;;;;;1.83;1.53;;;8.70;99.90;;;;;;7394137;19;20674;-73
2023/10/18 03:45:22;;;;;;;2.30;1.73;;;8.40;99.90;;;;;;7395854;19;20156;-73
2023/10/18 03:47:57;;;;;;;1.67;1.40;;;8.10;99.90;;;;;;7397588;19;20247;-72
2023/10/18 03:50:41;;;;;;;5.73;2.30;;;8.00;99.90;;;;;;7395035;19;20615;-72
2023/10/18 03:53:07;;;;;;;2.37;1.60;;;8.00;99.90;;;;;;7397404;19;20201;-71
2023/10/18 03:55:38;;;;;;;2.13;1.93;;;8.30;99.90;;;;;;7394837;19;20180;-72
2023/10/18 03:58:07;;;;;;;3.87;1.97;;;8.00;99.90;;;;;;7396808;19;20134;-72
2023/10/18 04:00:43;;;;;;;2.23;1.50;;;7.80;99.90;;;;;;7394527;19;20135;-72
2023/10/18 04:03:12;;;;;;;2.07;1.83;;;7.90;99.90;;;;;;7394900;19;20127;-73
2023/10/18 04:08:04;;;;;;;2.57;2.20;;;8.60;99.90;;;;;;7395888;19;20150;-72
2023/10/18 04:10:35;;;;;;;2.00;1.80;;;8.40;99.90;;;;;;7398175;19;20583;-72
2023/10/18 04:13:02;;;;;;;2.33;1.80;;;8.50;99.90;;;;;;7393215;19;20142;-71
2023/10/18 04:15:34;;;;;;;1.57;1.47;;;8.50;99.90;;;;;;7394983;19;20143;-72
2023/10/18 04:18:11;;;;;;;1.97;1.73;;;8.50;99.90;;;;;;7398228;19;20437;-72
2023/10/18 04:20:47;;;;;;;3.17;1.80;;;8.20;99.90;;;;;;7394825;19;20139;-71
2023/10/18 04:23:20;;;;;;;2.73;1.90;;;8.50;99.90;;;;;;7398591;19;20171;-72
2023/10/18 04:28:31;;;;;;;2.20;2.00;;;8.40;99.90;;;;;;7393779;19;20158;-73
2023/10/18 04:31:00;;;;;;;2.23;1.60;;;8.50;99.90;;;;;;7394343;19;20151;-72
2023/10/18 04:33:36;;;;;;;2.13;1.87;;;9.00;99.90;;;;;;7397305;19;20138;-72
2023/10/18 04:36:23;;;;;;;2.87;1.93;;;8.70;99.90;;;;;;7393586;19;20154;-71
2023/10/18 04:38:56;;;;;;;2.53;1.90;;;8.40;99.90;;;;;;7395871;19;20936;-72
2023/10/18 04:43:52;;;;;;;3.23;2.17;;;8.80;99.90;;;;;;7393837;19;20613;-71
2023/10/18 04:46:22;;;;;;;2.23;2.03;;;8.90;99.90;;;;;;7392766;19;20139;-72
2023/10/18 04:54:03;;;;;;;2.00;1.80;;;8.50;99.90;;;;;;7393549;19;20266;-71
2023/10/18 04:56:38;;;;;;;3.50;1.77;;;8.70;99.90;;;;;;7393176;19;20154;-72
2023/10/18 04:59:29;;;;;;;2.27;1.67;;;8.40;99.90;;;;;;7396106;19;20127;-73
2023/10/18 05:04:32;;;;;;;3.87;1.93;;;8.20;99.90;;;;;;7395760;19;20135;-71
2023/10/18 05:07:01;;;;;;;2.17;1.97;;;7.90;99.90;;;;;;7393329;19;20142;-73
2023/10/18 05:09:32;;;;;;;2.53;1.93;;;8.10;99.90;;;;;;7393833;19;20126;-72
2023/10/18 05:11:59;;;;;;;2.67;2.20;;;8.50;99.90;;;;;;7391956;19;20513;-72
2023/10/18 05:14:43;;;;;;;3.53;2.30;;;8.40;99.90;;;;;;7396135;19;20142;-72
2023/10/18 05:17:10;;;;;;;2.63;1.90;;;8.30;99.90;;;;;;7393058;19;20146;-73
2023/10/18 05:19:41;;;;;;;2.63;2.00;;;7.90;99.90;;;;;;7392012;19;20598;-72
2023/10/18 05:22:17;;;;;;;2.00;1.70;;;7.70;99.90;;;;;;7392597;19;20286;-73
2023/10/18 05:24:46;;;;;;;2.10;2.00;;;7.70;99.90;;;;;;7394584;19;20134;-72
2023/10/18 05:27:45;;;;;;;2.60;1.77;;;7.70;99.90;;;;;;7391625;19;20191;-71
2023/10/18 05:30:26;;;;;;;2.27;1.80;;;7.70;99.90;;;;;;7392940;19;20255;-73
2023/10/18 05:35:26;;;;;;;3.63;2.27;;;7.90;99.90;;;;;;7392108;19;20210;-71
2023/10/18 05:38:06;;;;;;;2.37;2.17;;;8.00;99.90;;;;;;7393453;19;20138;-72
2023/10/18 05:43:07;;;;;;;2.63;2.33;;;8.30;99.90;;;;;;7392082;19;20158;-71
2023/10/18 05:45:33;;;;;;;3.20;2.07;;;8.30;99.90;;;;;;7391253;19;20139;-71
2023/10/18 05:48:03;;;;;;;3.23;2.30;;;8.00;99.90;;;;;;7389625;19;20159;-71
2023/10/18 05:50:34;;;;;;;2.50;2.30;;;8.00;99.90;;;;;;7391916;19;20239;-71
2023/10/18 05:53:06;;;;;;;2.63;2.33;;;7.80;99.90;;;;;;7392252;19;20227;-71
2023/10/18 05:55:35;;;;;;;5.03;2.90;;;8.10;99.90;;;;;;7389087;19;20138;-70
2023/10/18 05:58:04;;;;;;;3.53;2.33;;;8.00;99.90;;;;;;7392290;19;20603;-71
2023/10/18 06:00:33;;;;;;;1.97;1.70;;;7.80;99.90;;;;;;7392001;19;20130;-71
2023/10/18 06:03:07;;;;;;;2.43;2.07;;;7.80;99.90;;;;;;7393135;19;20529;-71
2023/10/18 06:05:35;;;;;;;3.87;2.50;;;8.30;99.90;;;;;;7392258;19;20151;-71
2023/10/18 06:08:01;;;;;;;3.50;2.73;;;8.70;99.90;;;;;;7391081;19;20505;-71
2023/10/18 06:10:27;;;;;;;5.30;2.70;;;9.00;99.90;;;;;;7390221;19;20156;-71
2023/10/18 06:13:20;;;;;;;2.57;2.37;;;9.10;99.90;;;;;;7392762;19;20135;-71
2023/10/18 06:15:50;;;;;;;3.17;2.27;;;9.10;99.90;;;;;;7390914;19;20142;-71
2023/10/18 06:18:30;;;;;;;3.40;2.30;;;9.10;99.90;;;;;;7392804;19;20139;-72
2023/10/18 06:20:59;;;;;;;3.57;2.10;;;9.10;99.90;;;;;;7391270;19;20197;-72
2023/10/18 06:23:37;;;;;;;3.23;2.37;;;9.10;99.90;;;;;;7390752;19;20453;-72
2023/10/18 06:26:39;;;;;;;3.23;2.87;;;8.80;99.90;;;;;;7391853;19;20222;-72
2023/10/18 06:29:02;;;;;;;4.10;1.77;;;8.50;99.90;;;;;;7389036;19;20155;-72
2023/10/18 06:31:31;;;;;;;3.20;2.37;;;8.50;99.90;;;;;;7391933;19;20135;-72
2023/10/18 06:34:04;;;;;;;6.17;4.60;;;8.80;99.90;;;;;;7393677;19;20130;-72
2023/10/18 06:36:33;;;;;;;4.27;3.00;;;8.70;99.90;;;;;;7390170;19;20138;-72
2023/10/18 06:38:59;;;;;;;3.10;2.33;;;8.60;99.90;;;;;;7389671;19;20147;-73
2023/10/18 06:41:29;;;;;;;3.43;2.57;;;8.80;99.90;;;;;;7388848;19;20142;-72
2023/10/18 06:43:58;;;;;;;4.53;3.80;;;9.00;99.90;;;;;;7388438;19;20147;-73
2023/10/18 06:46:27;;;;;;;4.03;2.83;;;8.70;99.90;;;;;;7387169;19;20131;-73
2023/10/18 06:48:55;;;;;;;4.73;3.33;;;8.80;99.90;;;;;;7393931;19;20141;-72
2023/10/18 06:51:33;;;;;;;4.80;3.07;;;9.00;99.90;;;;;;7391843;19;20170;-72
2023/10/18 06:54:03;;;;;;;7.00;2.83;;;9.20;99.90;;;;;;7391582;19;20164;-71
2023/10/18 06:56:32;;;;;;;3.90;2.87;;;9.30;99.90;;;;;;7391926;19;20145;-72
2023/10/18 06:59:06;;;;;;;3.40;2.80;;;9.40;99.90;;;;;;7390057;19;20153;-70
2023/10/18 07:01:32;;;;;;;3.53;2.70;;;9.40;99.90;;;;;;7389083;19;20154;-71
2023/10/18 07:03:58;;;;;;;3.50;2.83;;;9.30;99.90;;;;;;7387096;19;20604;-72
2023/10/18 07:06:24;;;;;;;2.83;2.23;;;9.30;99.90;;;;;;7387706;19;20182;-71
2023/10/18 07:08:50;;;;;;;3.33;2.10;;;9.40;99.90;;;;;;7390667;19;20154;-71
2023/10/18 07:11:17;;;;;;;2.23;1.87;;;9.50;99.90;;;;;;7390671;19;20150;-72
2023/10/18 07:13:47;;;;;;;3.13;2.83;;;9.60;99.90;;;;;;7388584;19;20142;-71
2023/10/18 07:19:07;;;;;;;3.93;2.50;;;9.50;99.90;;;;;;7390050;19;20135;-71
2023/10/18 07:21:33;;;;;;;2.80;2.07;;;9.60;99.90;;;;;;7389414;19;20141;-71
2023/10/18 07:24:09;;;;;;;3.03;2.70;;;9.60;99.90;;;;;;7389212;19;20142;-72
2023/10/18 07:26:38;;;;;;;4.53;2.67;;;9.50;99.90;;;;;;7386934;19;20146;-72
2023/10/18 07:29:06;;;;;;;3.47;2.70;;;9.60;99.90;;;;;;7390348;19;20142;-72
2023/10/18 07:31:38;;;;;;;4.20;2.67;;;9.60;99.90;;;;;;7390197;19;20139;-71
2023/10/18 07:34:07;;;;;;;5.20;2.53;;;9.70;99.90;;;;;;7387880;19;20633;-73
2023/10/18 07:36:44;;;;;;;3.53;2.47;;;9.80;99.90;;;;;;7384586;19;20613;-72
2023/10/18 07:39:16;;;;;;;2.47;2.23;;;9.90;99.90;;;;;;7389759;19;20127;-72
2023/10/18 07:41:43;;;;;;;2.60;2.33;;;9.80;99.90;;;;;;7388174;19;20147;-71
2023/10/18 07:44:09;;;;;;;5.17;3.47;;;9.80;99.90;;;;;;7390262;19;20832;-71
2023/10/18 07:46:42;;;;;;;4.03;2.70;;;9.90;99.90;;;;;;7387208;19;20151;-71
2023/10/18 07:49:15;;;;;;;3.93;3.27;;;10.00;99.90;;;;;;7389478;19;20202;-72
2023/10/18 07:51:48;;;;;;;4.27;3.13;;;9.80;99.90;;;;;;7391628;19;20139;-71
2023/10/18 07:54:15;;;;;;;3.50;3.03;;;9.90;99.90;;;;;;7389520;19;20587;-70
2023/10/18 07:56:48;;;;;;;4.30;3.17;;;10.00;99.90;;;;;;7388703;19;20554;-72
2023/10/18 07:59:28;;;;;;;6.47;3.10;;;10.20;99.90;;;;;;7388579;19;20520;-73
2023/10/18 08:02:13;;;;;;;3.90;2.57;;;10.20;99.90;;;;;;7386322;19;20235;-72
2023/10/18 08:04:42;;;;;;;4.53;2.33;;;10.30;99.90;;;;;;7391079;19;20146;-73
2023/10/18 08:07:12;;;;;;;2.77;2.13;;;10.30;99.90;;;;;;7385046;19;20210;-72
2023/10/18 08:09:42;;;;;;;3.13;2.60;;;10.40;99.90;;;;;;7389417;19;20146;-72
2023/10/18 08:14:47;;;;;;;3.73;2.33;;;10.60;99.90;;;;;;7387104;19;20134;-72
2023/10/18 08:18:00;;;;;;;3.63;2.53;;;10.30;99.90;;;;;;7398736;19;20221;-72
2023/10/18 08:22:46;;;;;;;4.00;2.70;;;10.10;99.90;;;;;;7397939;19;20159;-72
2023/10/18 08:25:22;;;;;;;7.73;3.50;;;10.30;99.90;;;;;;7395680;19;20138;-72
2023/10/18 08:27:56;;;;;;;4.13;2.70;;;10.10;99.90;;;;;;7393869;19;20518;-72
2023/10/18 08:30:24;;;;;;;4.70;3.20;;;10.10;99.90;;;;;;7394556;19;20172;-73
2023/10/18 08:32:53;;;;;;;3.97;3.20;;;10.10;99.90;;;;;;7391728;19;20154;-70
2023/10/18 08:35:20;;;;;;;3.53;2.80;;;9.80;99.90;;;;;;7393727;19;20151;-71
2023/10/18 08:37:48;;;;;;;4.93;3.17;;;9.80;99.90;;;;;;7396674;19;20155;-71
2023/10/18 08:43:06;;;;;;;5.13;3.20;;;10.40;99.90;;;;;;7391191;19;20178;-73
2023/10/18 08:45:45;;;;;;;4.50;3.63;;;10.50;99.90;;;;;;7388605;19;20225;-72
2023/10/18 08:48:17;;;;;;;5.67;3.80;;;10.50;99.90;;;;;;7392008;19;20142;-71
2023/10/18 08:50:44;;;;;;;4.67;3.27;;;10.70;99.90;;;;;;7393115;19;20134;-71
2023/10/18 08:53:15;;;;;;;3.90;3.07;;;10.80;99.90;;;;;;7394754;19;20162;-71
2023/10/18 08:55:52;;;;;;;3.87;3.03;;;10.90;99.90;;;;;;7391274;19;20139;-72
2023/10/18 08:58:20;;;;;;;3.53;3.03;;;10.80;99.90;;;;;;7395618;19;20151;-71
2023/10/18 09:03:23;;;;;;;4.33;3.13;;;10.50;99.90;;;;;;7392350;19;20341;-72
2023/10/18 09:06:05;;;;;;;3.50;2.97;;;10.80;99.90;;;;;;7392296;19;20147;-73
2023/10/18 09:09:18;;;;;;;6.60;3.07;;;11.00;99.90;;;;;;7392236;19;20155;-73
2023/10/18 09:11:27;;;;;;;3.93;3.07;;;11.20;99.90;;;;;;7393508;19;20150;-71
2023/10/18 09:14:08;;;;;;;4.90;3.53;;;11.30;99.90;;;;;;7392294;19;20151;-70
2023/10/18 09:16:41;;;;;;;5.53;3.83;;;11.30;99.90;;;;;;7395484;19;20149;-72
2023/10/18 09:19:09;;;;;;;3.97;3.00;;;11.20;99.90;;;;;;7391671;19;20150;-72
2023/10/18 09:21:36;;;;;;;4.47;3.23;;;11.30;99.90;;;;;;7394466;19;20476;-72
2023/10/18 09:24:06;;;;;;;3.20;2.90;;;11.40;99.90;;;;;;7393144;19;20238;-71
2023/10/18 09:26:40;;;;;;;4.50;3.23;;;11.40;99.90;;;;;;7391751;19;20166;-72
2023/10/18 09:29:08;;;;;;;3.93;2.90;;;11.50;99.90;;;;;;7393216;19;20221;-73
2023/10/18 09:31:37;;;;;;;6.50;3.43;;;11.50;99.90;;;;;;7392824;19;20131;-73
2023/10/18 09:34:09;;;;;;;4.30;3.03;;;11.70;99.90;;;;;;7392426;19;20609;-72
2023/10/18 09:36:42;;;;;;;4.80;2.87;;;11.80;99.90;;;;;;7392190;19;20497;-73
2023/10/18 09:39:15;;;;;;;4.77;3.83;;;11.90;99.90;;;;;;7392734;19;20138;-71
2023/10/18 09:41:40;;;;;;;4.57;3.23;;;12.00;99.90;;;;;;7394751;19;20130;-72
2023/10/18 09:44:07;;;;;;;3.43;3.03;;;12.00;99.90;;;;;;7391032;19;20143;-73
2023/10/18 09:46:36;;;;;;;5.23;3.23;;;12.20;99.90;;;;;;7391065;19;20134;-74
2023/10/18 09:49:06;;;;;;;3.90;3.50;;;12.30;99.90;;;;;;7392982;19;20543;-73
2023/10/18 09:51:33;;;;;;;6.00;3.67;;;12.30;99.90;;;;;;7395337;19;20146;-71
2023/10/18 09:54:06;;;;;;;3.97;3.13;;;12.30;99.90;;;;;;7391957;19;20139;-72
2023/10/18 09:56:35;;;;;;;4.10;2.87;;;12.40;99.90;;;;;;7392233;19;20210;-72
2023/10/18 09:59:08;;;;;;;4.37;3.20;;;12.40;99.90;;;;;;7395275;19;20221;-73
2023/10/18 10:04:12;;;;;;;4.23;3.17;;;12.50;99.90;;;;;;7392085;19;20158;-72
2023/10/18 10:06:45;;;;;;;4.80;3.23;;;12.50;99.90;;;;;;7386993;19;20193;-72
2023/10/18 10:09:12;;;;;;;6.50;2.93;;;12.50;99.90;;;;;;7388915;19;20146;-72
2023/10/18 10:11:45;;;;;;;3.87;2.97;;;12.50;99.90;;;;;;7392237;19;20214;-71
2023/10/18 10:14:16;;;;;;;6.88;3.85;;;12.50;99.90;;;;;;7392275;19;20466;-73
2023/10/18 10:16:54;;;;;;;6.37;3.90;;;12.60;99.90;;;;;;7390161;19;20141;-75
2023/10/18 10:19:26;;;;;;;4.60;3.13;;;12.50;99.90;;;;;;7391178;19;20149;-72
2023/10/18 10:21:54;;;;;;;3.75;2.88;;;12.60;99.90;;;;;;7392364;19;20511;-72
2023/10/18 10:24:33;;;;;;;4.73;3.40;;;12.60;99.90;;;;;;7391222;19;20145;-73
2023/10/18 10:30:19;;;;;;;4.63;3.50;;;12.80;99.90;;;;;;7392314;19;20141;-71
2023/10/18 10:32:47;;;;;;;4.03;3.00;;;13.00;99.90;;;;;;7393546;19;20145;-72
2023/10/18 10:35:18;;;;;;;3.28;2.78;;;13.00;99.90;;;;;;7390482;19;20159;-73
2023/10/18 10:37:52;;;;;;;4.10;2.90;;;13.10;99.90;;;;;;7392439;19;20161;-72
2023/10/18 10:43:04;;;;;;;5.85;3.50;;;13.00;99.90;;;;;;7385445;19;20483;-71
2023/10/18 10:45:32;;;;;;;4.72;3.13;;;13.30;99.90;;;;;;7388034;19;20157;-72
2023/10/18 10:48:18;;;;;;;3.77;2.67;;;13.60;99.90;;;;;;7393022;19;20127;-73
2023/10/18 10:50:51;;;;;;;4.72;3.08;;;13.70;99.90;;;;;;7389083;19;20154;-72
2023/10/18 10:54:17;;;;;;;4.50;3.23;;;13.90;99.90;;;;;;7385686;19;20146;-73
2023/10/18 10:56:27;;;;;;;3.53;2.72;;;14.10;99.90;;;;;;7388430;19;20178;-73
2023/10/18 10:59:03;;;;;;;3.72;2.78;;;14.30;99.90;;;;;;7386700;19;20165;-71
2023/10/18 11:01:57;;;;;;;3.03;2.60;;;14.40;99.90;;;;;;7389716;19;20134;-72
2023/10/18 11:04:28;;;;;;;3.17;2.67;;;14.40;99.90;;;;;;7387098;19;20146;-72
2023/10/18 11:07:04;;;;;;;3.72;2.65;;;14.60;99.90;;;;;;7386674;19;20147;-72
2023/10/18 11:09:38;;;;;;;5.00;3.45;;;14.70;99.90;;;;;;7389615;19;20162;-72
2023/10/18 11:12:13;;;;;;;4.07;2.90;;;14.80;99.90;;;;;;7388273;19;20482;-72
2023/10/18 11:14:42;;;;;;;3.85;2.42;;;14.80;99.90;;;;;;7389755;19;20130;-71
2023/10/18 11:19:45;;;;;;;4.05;3.03;;;15.00;99.90;;;;;;7388722;19;20142;-72
2023/10/18 11:22:11;;;;;;;3.45;2.72;;;14.80;99.90;;;;;;7389071;19;20560;-75
2023/10/18 11:24:39;;;;;;;5.10;3.33;;;14.70;99.90;;;;;;7388132;19;20143;-75
2023/10/18 11:27:09;;;;;;;3.72;2.60;;;14.60;99.90;;;;;;7387724;19;20430;-76
2023/10/18 11:29:38;;;;;;;3.63;2.65;;;14.60;99.90;;;;;;7388603;19;21851;-76
2023/10/18 11:32:07;;;;;;;5.40;3.30;;;14.40;99.90;;;;;;7389154;19;20146;-76
2023/10/18 11:34:45;;;;;;;3.03;2.33;;;14.30;99.90;;;;;;7387094;19;20150;-75
2023/10/18 11:37:14;;;;;;;2.50;2.30;;;14.30;99.90;;;;;;7389295;19;20150;-76
2023/10/18 11:39:42;;;;;;;3.53;2.85;;;14.30;99.90;;;;;;7386309;19;20153;-75
2023/10/18 11:42:10;;;;;;;3.72;2.97;;;14.30;99.90;;;;;;7384782;19;20155;-73
2023/10/18 11:44:39;;;;;;;3.27;2.53;;;14.30;99.90;;;;;;7386495;19;20159;-73
2023/10/18 11:47:12;;;;;;;3.78;2.65;;;14.40;99.90;;;;;;7387932;19;20142;-75
2023/10/18 11:49:42;;;;;;;3.97;2.85;;;14.40;99.90;;;;;;7389787;19;20151;-74
2023/10/18 11:52:16;;;;;;;3.10;2.50;;;14.50;99.90;;;;;;7395588;19;20138;-75
2023/10/18 11:54:47;;;;;;;3.50;2.42;;;14.60;99.90;;;;;;7395611;19;20143;-74
2023/10/18 11:57:30;;;;;;;3.33;2.25;;;14.60;99.90;;;;;;7395274;19;20150;-75
2023/10/18 12:00:02;;;;;;;3.22;2.38;;;14.70;99.90;;;;;;7398021;19;20139;-73
2023/10/18 12:02:31;;;;;;;3.35;2.25;;;14.70;99.90;;;;;;7397273;19;20195;-74
2023/10/18 12:04:57;;;;;;;2.92;2.28;;;14.70;99.90;;;;;;7394786;19;20774;-77
2023/10/18 12:07:24;;;;;;;2.78;1.90;;;14.70;99.90;;;;;;7395224;19;20505;-75
2023/10/18 12:09:52;;;;;;;2.97;1.95;;;14.70;99.90;;;;;;7394658;19;20154;-76
2023/10/18 12:12:19;;;;;;;2.38;1.85;;;14.70;99.90;;;;;;7394656;19;20146;-76
2023/10/18 12:14:46;;;;;;;4.00;2.05;;;14.70;99.90;;;;;;7397516;19;20146;-75
2023/10/18 12:17:15;;;;;;;2.70;2.08;;;14.60;99.90;;;;;;7395308;19;20174;-74
2023/10/18 12:19:43;;;;;;;2.97;1.67;;;14.50;99.90;;;;;;7398411;19;20135;-76
2023/10/18 12:22:10;;;;;;;2.20;2.00;;;14.60;99.90;;;;;;7396611;19;20154;-77
2023/10/18 12:24:37;;;;;;;1.77;1.63;;;14.70;99.90;;;;;;7396621;19;20488;-78
2023/10/18 12:27:19;;;;;;;2.97;1.83;;;14.60;99.90;;;;;;7394351;19;20675;-77
2023/10/18 12:29:45;;;;;;;2.13;1.60;;;14.70;99.90;;;;;;7395587;19;20167;-77
2023/10/18 12:32:26;;;;;;;1.98;1.50;;;14.70;99.90;;;;;;7394213;19;20489;-76
2023/10/18 12:34:58;;;;;;;2.90;2.22;;;14.70;99.90;;;;;;7394902;19;20126;-76
2023/10/18 12:37:32;;;;;;;5.90;2.08;;;14.70;99.90;;;;;;7396419;19;20242;-77
2023/10/18 12:39:59;;;;;;;3.20;1.70;;;14.60;99.90;;;;;;7392858;19;20631;-76
2023/10/18 12:42:25;;;;;;;2.03;1.67;;;14.60;99.90;;;;;;7393431;19;20184;-74
2023/10/18 12:44:55;;;;;;;3.45;2.42;;;14.80;99.90;;;;;;7392903;19;20142;-75
2023/10/18 12:47:21;;;;;;;2.05;1.70;;;14.80;99.90;;;;;;7397113;19;20150;-76
2023/10/18 12:49:51;;;;;;;2.40;1.90;;;14.90;99.90;;;;;;7396389;19;20543;-75
2023/10/18 12:55:05;;;;;;;4.00;1.73;;;14.90;99.90;;;;;;7392962;19;20139;-75
2023/10/18 12:57:34;;;;;;;3.17;2.00;;;14.80;99.90;;;;;;7394522;19;20155;-75
2023/10/18 13:00:16;;;;;;;3.47;1.67;;;14.80;99.90;;;;;;7392154;19;20158;-76
2023/10/18 13:03:21;;;;;;;2.42;1.80;;;14.70;99.90;;;;;;7385477;19;20138;-76
2023/10/18 13:05:43;;;;;;;1.90;1.70;;;14.70;99.90;;;;;;7393044;19;20254;-75
2023/10/18 13:08:16;;;;;;;2.50;1.85;;;14.60;99.90;;;;;;7393108;19;20135;-76
2023/10/18 13:10:48;;;;;;;1.67;1.58;;;14.60;99.90;;;;;;7392649;19;20178;-76
2023/10/18 13:13:16;;;;;;;2.42;1.88;;;14.60;99.90;;;;;;7392262;19;20150;-76
2023/10/18 13:15:46;;;;;;;2.58;1.70;;;14.50;99.90;;;;;;7393675;19;20496;-75
2023/10/18 13:18:14;;;;;;;2.13;1.70;;;14.50;99.90;;;;;;7392078;19;20774;-74
2023/10/18 13:20:44;;;;;;;1.58;1.30;;;14.50;99.90;;;;;;7392480;19;20503;-76
2023/10/18 13:23:12;;;;;;;2.08;1.88;;;14.60;99.90;;;;;;7394818;19;20118;-75
2023/10/18 13:25:54;;;;;;;1.40;1.23;;;14.70;99.90;;;;;;7390050;19;20126;-78
2023/10/18 13:31:08;;;;;;;2.28;1.25;;;14.80;99.90;;;;;;7392275;19;20157;-76
2023/10/18 13:33:33;;;;;;;1.15;1.05;;;14.90;99.90;;;;;;7394854;19;20587;-76
2023/10/18 13:36:03;;;;;;;1.25;1.15;;;14.90;99.90;;;;;;7394143;19;20149;-77
2023/10/18 13:38:29;;;;;;;1.33;1.13;;;15.10;99.90;;;;;;7390927;19;20157;-76
2023/10/18 13:40:56;;;;;;;1.48;1.10;;;15.10;99.90;;;;;;7393152;19;20146;-76
2023/10/18 13:43:24;;;;;;;1.20;1.10;;;15.10;99.90;;;;;;7390958;19;20178;-75
2023/10/18 13:45:59;;;;;;;1.92;1.02;;;15.10;99.90;;;;;;7390573;19;20150;-77
2023/10/18 13:48:25;;;;;;;0.98;0.93;;;15.20;99.90;;;;;;7394250;19;20497;-77
2023/10/18 13:50:58;;;;;;;1.05;0.90;;;15.20;99.90;;;;;;7393576;19;20134;-75
2023/10/18 13:53:24;;;;;;;1.55;1.13;;;15.20;99.90;;;;;;7391710;19;20170;-76
2023/10/18 13:55:59;;;;;;;1.45;1.02;;;15.20;99.90;;;;;;7391414;19;20166;-78
2023/10/18 13:58:29;;;;;;;1.10;0.98;;;15.10;99.90;;;;;;7391436;19;20222;-76
2023/10/18 14:00:55;;;;;;;0.88;0.80;;;15.10;99.90;;;;;;7394295;19;20134;-75
2023/10/18 14:03:23;;;;;;;1.02;0.70;;;15.10;99.90;;;;;;7390945;19;20155;-75
2023/10/18 14:05:49;;;;;;;1.17;0.95;;;15.10;99.90;;;;;;7390722;19;20214;-76